Hovedside
METAR-TAF:

METAR-TAF

Lufthavner :

Roman Tmetuchl internasjonale lufthavn

Koror, Babeldaob, Palau

breddegrad: 07-22N, lengdegrad: 134-32E, høyde over havet: 54 m

Gjeldene værobservasjon

Denne rapporten ble laget for 24 timer og 55 minutter siden, klokken 17:53 UTC
Vind 5 kt fra Sør-sørvest
Temperatur 27°C
Luftfuktighet 79%
Trykk 1009 hPa
Sikt: 22.5 km
Spredte skyer i en høyde av 1600 ft
Brutte skyer i en høyde av 30000 ft

METAR: PTRO 181753Z 20005KT 14SM SCT016 BKN300 27/23 A2979

Tid: 03:48 (18:48 UTC)

Varsel

Denne rapporten ble laget for 57 minutter siden, klokken 17:51 UTC
Varsel gyldig fra 19. klokken 18 UTC til 20. klokken 18 UTC
Vind 8 kt fra Sør
Sikt: 10 km
Spredte skyer i en høyde av 1800 ft
Spredte skyer i en høyde av 14000 ft
regnbyger i nærheten

TAF: PTRO 191751Z 1918/2018 19008KT P6SM VCSH SCT018 SCT140

Værobservasjoner og værvarsel for over 4000 flyplasser (METAR- og TAF-rapporter).

Tilgjengelige stasjoner er representert av de røde og gule prikkene på kartet.

Hold musepekeren over prikken for å se navnet på stasjonen.

Klikk så for å se værobservasjoner og -varsler.

For å forandre kartet kan du klikke på den grønne knappen med svart kryss for å zoome inn, på den grønne knappen med strek for å zoome ut, eller på de grønne pilene for å se tilstøtende kart.


METAR-TAF: